Time;durP1;ratioP1;P1;durP2;ratioP2;P2;SDS_P1;SDS_P2;PMS_P1;PMS_P2;Temp;Humidity;BMP_temperature;BMP_pressure;BME280_temperature;BME280_humidity;BME280_pressure;Samples;Min_cycle;Max_cycle;Signal;HPM_P1;HPM_P2
2024/04/05 00:02:03;;;;;;;4.43;2.40;;;13.70;98.00;;;;;;4992377;28;20870;-66
2024/04/05 00:04:31;;;;;;;2.97;2.30;;;13.60;98.00;;;;;;4991293;28;20502;-66
2024/04/05 00:06:57;;;;;;;4.50;2.17;;;13.60;98.00;;;;;;4991825;28;20460;-66
2024/04/05 00:09:24;;;;;;;4.47;2.40;;;13.50;98.00;;;;;;4991757;28;20590;-66
2024/04/05 00:11:50;;;;;;;4.97;2.30;;;13.40;98.00;;;;;;4991489;28;20857;-66
2024/04/05 00:14:18;;;;;;;3.23;2.10;;;13.50;98.00;;;;;;5006944;28;20574;-66
2024/04/05 00:16:44;;;;;;;3.70;2.47;;;13.50;98.00;;;;;;5006700;28;20570;-66
2024/04/05 00:19:13;;;;;;;4.70;2.40;;;13.50;98.00;;;;;;4991212;28;21025;-66
2024/04/05 00:21:39;;;;;;;3.33;2.10;;;13.50;98.00;;;;;;5006087;28;20477;-66
2024/04/05 00:24:06;;;;;;;3.57;2.40;;;13.60;98.00;;;;;;4991098;28;20502;-66
2024/04/05 00:26:33;;;;;;;9.67;2.50;;;13.50;98.00;;;;;;4990390;28;20798;-65
2024/04/05 00:29:00;;;;;;;3.10;2.40;;;13.40;98.00;;;;;;4990917;28;20468;-65
2024/04/05 00:31:28;;;;;;;4.47;2.30;;;13.30;98.00;;;;;;4991612;28;20898;-66
2024/04/05 00:33:57;;;;;;;3.80;2.17;;;13.30;98.00;;;;;;4991413;28;20519;-66
2024/04/05 00:36:23;;;;;;;2.70;2.03;;;13.30;98.00;;;;;;4991467;28;20465;-66
2024/04/05 00:38:54;;;;;;;3.77;2.30;;;13.30;98.00;;;;;;4991433;28;20467;-66
2024/04/05 00:41:20;;;;;;;4.67;2.23;;;13.30;98.00;;;;;;4991345;28;20454;-66
2024/04/05 00:43:47;;;;;;;2.43;2.10;;;13.20;98.00;;;;;;4991348;28;20467;-66
2024/04/05 00:46:13;;;;;;;5.53;2.10;;;13.20;98.00;;;;;;4991156;28;20453;-66
2024/04/05 00:48:42;;;;;;;3.50;2.03;;;13.20;98.00;;;;;;4991192;28;20465;-66
2024/04/05 00:51:09;;;;;;;5.87;2.50;;;13.20;98.00;;;;;;4991114;28;20484;-66
2024/04/05 00:53:38;;;;;;;3.83;2.20;;;13.10;98.00;;;;;;4991450;28;20523;-66
2024/04/05 00:56:05;;;;;;;3.57;2.40;;;13.30;98.00;;;;;;4991474;28;20484;-66
2024/04/05 00:58:34;;;;;;;6.63;2.10;;;13.20;98.00;;;;;;4991420;28;21175;-66
2024/04/05 01:01:01;;;;;;;4.80;2.00;;;13.30;98.00;;;;;;4990045;28;20491;-66
2024/04/05 01:03:28;;;;;;;5.73;2.10;;;13.30;98.00;;;;;;4991487;28;20468;-66
2024/04/05 01:05:55;;;;;;;5.90;2.57;;;13.20;98.00;;;;;;4992605;28;20471;-66
2024/04/05 01:08:23;;;;;;;4.40;2.40;;;13.20;98.00;;;;;;4995046;28;20474;-66
2024/04/05 01:10:49;;;;;;;4.30;2.07;;;13.30;98.00;;;;;;4995334;28;20833;-66
2024/04/05 01:13:17;;;;;;;4.50;2.23;;;13.40;98.00;;;;;;4993955;28;20467;-66
2024/04/05 01:15:43;;;;;;;4.10;2.23;;;13.40;98.00;;;;;;4995201;28;20945;-65
2024/04/05 01:18:11;;;;;;;5.93;2.50;;;13.40;98.00;;;;;;4993396;28;20995;-65
2024/04/05 01:20:38;;;;;;;2.67;2.20;;;13.30;98.00;;;;;;4995021;28;20530;-66
2024/04/05 01:23:08;;;;;;;3.10;2.27;;;13.20;98.00;;;;;;4995139;28;20463;-66
2024/04/05 01:25:41;;;;;;;4.63;2.30;;;13.20;98.00;;;;;;4994761;28;20460;-66
2024/04/05 01:28:12;;;;;;;3.93;2.00;;;13.20;98.00;;;;;;4993414;28;20473;-66
2024/04/05 01:30:39;;;;;;;3.53;2.20;;;13.30;98.00;;;;;;4994754;28;20487;-66
2024/04/05 01:33:06;;;;;;;4.30;2.40;;;13.20;98.00;;;;;;4994520;28;20471;-66
2024/04/05 01:35:32;;;;;;;3.50;2.30;;;13.10;98.00;;;;;;4995514;28;20809;-65
2024/04/05 01:38:00;;;;;;;3.60;2.30;;;13.20;98.00;;;;;;4993859;28;20479;-66
2024/04/05 01:40:26;;;;;;;4.27;2.17;;;13.20;98.00;;;;;;4994111;28;20455;-66
2024/04/05 01:42:56;;;;;;;3.30;2.40;;;13.10;98.00;;;;;;4994794;28;20468;-66
2024/04/05 01:45:23;;;;;;;5.53;2.37;;;13.10;98.00;;;;;;4994638;28;20454;-66
2024/04/05 01:47:50;;;;;;;4.00;2.00;;;13.10;98.00;;;;;;4994290;28;20475;-66
2024/04/05 01:50:17;;;;;;;5.03;2.47;;;13.10;98.00;;;;;;4994472;28;20485;-66
2024/04/05 01:52:48;;;;;;;3.17;2.50;;;13.10;98.00;;;;;;4994227;28;20510;-65
2024/04/05 01:55:14;;;;;;;6.07;2.73;;;13.20;98.00;;;;;;4994249;28;20500;-66
2024/04/05 01:57:43;;;;;;;3.83;2.07;;;13.20;98.00;;;;;;4994528;28;20456;-66
2024/04/05 02:00:11;;;;;;;5.17;2.20;;;13.00;98.00;;;;;;4992839;28;20823;-66
2024/04/05 02:02:38;;;;;;;8.37;2.07;;;12.90;98.00;;;;;;4994236;28;21058;-66
2024/04/05 02:05:05;;;;;;;5.80;2.33;;;12.90;98.00;;;;;;4994276;28;20514;-65
2024/04/05 02:07:33;;;;;;;3.63;2.40;;;13.00;98.00;;;;;;4993885;28;20491;-66
2024/04/05 02:09:59;;;;;;;8.40;3.47;;;13.00;98.00;;;;;;4992872;28;20493;-66
2024/04/05 02:12:29;;;;;;;2.90;2.43;;;13.00;98.00;;;;;;4993937;28;20545;-66
2024/04/05 02:14:55;;;;;;;4.50;2.60;;;13.00;98.00;;;;;;4993959;28;20475;-66
2024/04/05 02:17:24;;;;;;;4.73;2.57;;;12.90;98.00;;;;;;4993719;28;20858;-66
2024/04/05 02:19:51;;;;;;;4.03;2.77;;;13.00;98.00;;;;;;4992771;28;20460;-66
2024/04/05 02:22:18;;;;;;;5.50;2.63;;;13.00;98.00;;;;;;4993676;28;20504;-66
2024/04/05 02:24:44;;;;;;;5.20;2.80;;;12.90;98.00;;;;;;4994006;28;20452;-66
2024/04/05 02:27:11;;;;;;;3.87;2.53;;;12.90;98.00;;;;;;4993933;28;20532;-66
2024/04/05 02:29:38;;;;;;;4.30;2.47;;;12.90;98.00;;;;;;4993689;28;20460;-66
2024/04/05 02:32:06;;;;;;;2.83;2.40;;;12.90;98.00;;;;;;4993659;28;20933;-66
2024/04/05 02:34:35;;;;;;;5.37;2.70;;;12.90;98.00;;;;;;4993390;28;20802;-67
2024/04/05 02:37:03;;;;;;;3.80;2.60;;;12.90;98.00;;;;;;4993577;28;20966;-66
2024/04/05 02:39:30;;;;;;;4.23;2.50;;;12.90;98.00;;;;;;4993674;28;20471;-66
2024/04/05 02:41:57;;;;;;;4.00;2.60;;;12.80;98.00;;;;;;4976368;28;20483;-66
2024/04/05 02:44:25;;;;;;;2.87;2.30;;;12.80;98.00;;;;;;4993705;28;20460;-66
2024/04/05 02:46:53;;;;;;;5.00;2.90;;;12.90;98.00;;;;;;4992291;28;20464;-65
2024/04/05 02:49:20;;;;;;;3.50;2.40;;;12.90;98.00;;;;;;4993253;28;20516;-66
2024/04/05 02:51:49;;;;;;;4.70;2.93;;;12.90;98.00;;;;;;4993449;28;20835;-66
2024/04/05 02:54:15;;;;;;;4.10;2.80;;;12.80;98.00;;;;;;4993675;28;20460;-66
2024/04/05 02:56:44;;;;;;;3.83;2.80;;;12.70;98.00;;;;;;4993182;28;20885;-66
2024/04/05 02:59:10;;;;;;;4.77;2.53;;;12.80;98.00;;;;;;4993120;28;20459;-66
2024/04/05 03:01:37;;;;;;;3.00;2.40;;;12.80;98.00;;;;;;4991821;28;20534;-66
2024/04/05 03:04:03;;;;;;;7.17;2.60;;;12.70;98.00;;;;;;4991894;28;20454;-66
2024/04/05 03:06:30;;;;;;;3.63;3.00;;;12.70;98.00;;;;;;4993128;28;20605;-66
2024/04/05 03:08:58;;;;;;;4.70;3.00;;;12.60;98.00;;;;;;4991899;28;20473;-66
2024/04/05 03:11:25;;;;;;;5.83;2.90;;;12.60;98.00;;;;;;4992814;28;20519;-66
2024/04/05 03:13:51;;;;;;;5.07;2.80;;;12.60;98.00;;;;;;4992834;28;20969;-66
2024/04/05 03:16:18;;;;;;;5.07;2.73;;;12.80;98.00;;;;;;4992547;28;20471;-66
2024/04/05 03:18:44;;;;;;;4.20;2.83;;;12.80;98.00;;;;;;4992754;28;20522;-66
2024/04/05 03:21:11;;;;;;;3.10;2.70;;;12.90;98.00;;;;;;4992618;28;20464;-66
2024/04/05 03:23:37;;;;;;;5.97;2.60;;;12.80;98.00;;;;;;4992538;28;20474;-66
2024/04/05 03:26:08;;;;;;;4.23;2.97;;;12.80;98.00;;;;;;4992681;28;20463;-66
2024/04/05 03:28:34;;;;;;;3.83;2.67;;;12.70;98.00;;;;;;4991516;28;20519;-66
2024/04/05 03:31:05;;;;;;;6.27;3.07;;;12.90;98.00;;;;;;4992546;28;20686;-65
2024/04/05 03:33:32;;;;;;;10.23;3.77;;;13.00;98.00;;;;;;4992421;28;20489;-66
2024/04/05 03:36:04;;;;;;;4.17;2.90;;;13.00;98.00;;;;;;4992518;28;20474;-65
2024/04/05 03:38:31;;;;;;;5.80;3.10;;;13.00;98.00;;;;;;4975050;28;20494;-66
2024/04/05 03:41:01;;;;;;;4.13;2.60;;;13.00;98.00;;;;;;4992458;28;20460;-66
2024/04/05 03:43:30;;;;;;;3.63;2.70;;;12.90;98.00;;;;;;4992274;28;20459;-66
2024/04/05 03:45:56;;;;;;;4.40;2.73;;;12.90;98.00;;;;;;4992416;28;20472;-66
2024/04/05 03:48:23;;;;;;;3.90;2.90;;;12.80;98.00;;;;;;4992182;28;20813;-66
2024/04/05 03:50:49;;;;;;;4.03;2.87;;;12.60;98.00;;;;;;4991787;28;20479;-66
2024/04/05 03:53:17;;;;;;;8.33;3.27;;;12.50;98.00;;;;;;4992024;28;20475;-66
2024/04/05 03:55:43;;;;;;;5.47;2.93;;;12.40;98.00;;;;;;4990463;28;20462;-66
2024/04/05 03:58:11;;;;;;;4.40;3.10;;;12.40;98.00;;;;;;4991951;28;20503;-66
2024/04/05 04:00:39;;;;;;;5.03;2.90;;;12.30;98.00;;;;;;4990836;28;20925;-66
2024/04/05 04:03:07;;;;;;;3.67;2.77;;;12.20;98.00;;;;;;4991800;28;20478;-65
2024/04/05 04:05:33;;;;;;;5.00;2.90;;;12.20;98.00;;;;;;4991986;28;20469;-65
2024/04/05 04:08:00;;;;;;;4.77;2.70;;;12.30;98.00;;;;;;4991811;28;20525;-66
2024/04/05 04:10:28;;;;;;;4.10;2.90;;;12.30;98.00;;;;;;4991686;28;20498;-66
2024/04/05 04:12:55;;;;;;;4.10;3.07;;;12.20;98.00;;;;;;4991627;28;20493;-66
2024/04/05 04:15:21;;;;;;;5.63;2.80;;;12.20;98.00;;;;;;4974809;28;20822;-66
2024/04/05 04:17:50;;;;;;;3.60;2.53;;;12.10;98.00;;;;;;4991191;28;20488;-65
2024/04/05 04:20:16;;;;;;;3.87;2.90;;;12.10;98.00;;;;;;4991400;28;20482;-66
2024/04/05 04:22:43;;;;;;;6.97;2.83;;;12.10;98.00;;;;;;4991806;28;20470;-66
2024/04/05 04:25:11;;;;;;;5.67;2.77;;;12.00;98.00;;;;;;4991512;28;20458;-66
2024/04/05 04:27:38;;;;;;;4.20;2.90;;;11.90;98.00;;;;;;4990308;28;20538;-66
2024/04/05 04:30:08;;;;;;;9.23;2.60;;;11.80;98.00;;;;;;4991614;28;20455;-66
2024/04/05 04:32:35;;;;;;;3.33;2.43;;;11.80;98.00;;;;;;4991739;28;20461;-66
2024/04/05 04:35:10;;;;;;;3.77;2.70;;;11.70;98.00;;;;;;4990253;28;20462;-65
2024/04/05 04:37:37;;;;;;;3.70;2.63;;;11.70;98.00;;;;;;4990737;28;20544;-66
2024/04/05 04:40:04;;;;;;;4.90;2.63;;;11.80;98.00;;;;;;4990739;28;20467;-65
2024/04/05 04:42:31;;;;;;;6.27;2.70;;;11.80;98.00;;;;;;4992442;28;20470;-65
2024/04/05 04:44:57;;;;;;;6.70;2.77;;;11.70;98.00;;;;;;4990924;28;20458;-66
2024/04/05 04:47:27;;;;;;;4.13;2.50;;;11.70;98.00;;;;;;4991627;28;20469;-65
2024/04/05 04:49:53;;;;;;;4.30;2.77;;;11.70;98.00;;;;;;4992021;28;20866;-65
2024/04/05 04:52:21;;;;;;;4.03;2.80;;;11.60;98.00;;;;;;4991736;28;20490;-65
2024/04/05 04:54:47;;;;;;;8.80;2.93;;;11.50;98.00;;;;;;4991563;28;20469;-65
2024/04/05 04:57:15;;;;;;;3.50;2.60;;;11.60;98.00;;;;;;4991737;28;20472;-65
2024/04/05 04:59:42;;;;;;;3.53;2.50;;;11.70;98.00;;;;;;4991979;28;20460;-66
2024/04/05 05:02:09;;;;;;;3.30;2.60;;;11.60;98.00;;;;;;4990755;28;20479;-66
2024/04/05 05:04:37;;;;;;;5.40;3.00;;;11.60;98.00;;;;;;4990575;28;20546;-66
2024/04/05 05:07:06;;;;;;;4.20;2.47;;;11.50;98.00;;;;;;4991829;28;20465;-66
2024/04/05 05:09:35;;;;;;;3.47;2.80;;;11.60;98.00;;;;;;4991418;28;20550;-65
2024/04/05 05:12:02;;;;;;;6.27;3.23;;;11.70;98.00;;;;;;4991457;28;20498;-66
2024/04/05 05:14:30;;;;;;;6.27;2.93;;;11.70;98.00;;;;;;4990464;28;20458;-66
2024/04/05 05:16:56;;;;;;;4.70;3.00;;;11.80;98.00;;;;;;4990285;28;20459;-66
2024/04/05 05:19:23;;;;;;;4.57;3.10;;;11.70;98.00;;;;;;4990156;28;20496;-65
2024/04/05 05:21:49;;;;;;;4.50;2.97;;;11.70;98.00;;;;;;4991447;28;20495;-66
2024/04/05 05:24:16;;;;;;;3.60;2.90;;;11.70;98.00;;;;;;4991635;28;20474;-66
2024/04/05 05:26:43;;;;;;;3.97;2.50;;;11.70;98.00;;;;;;4990311;28;20464;-65
2024/04/05 05:29:11;;;;;;;5.53;2.87;;;11.70;98.00;;;;;;4990866;28;20466;-65
2024/04/05 05:31:37;;;;;;;4.87;2.50;;;11.70;98.00;;;;;;4991340;28;20495;-65
2024/04/05 05:34:04;;;;;;;4.30;2.60;;;11.70;98.00;;;;;;4991533;28;20471;-66
2024/04/05 05:36:30;;;;;;;3.33;2.70;;;11.60;98.00;;;;;;4991487;28;20460;-66
2024/04/05 05:38:57;;;;;;;5.33;2.80;;;11.60;98.00;;;;;;4991003;28;20470;-65
2024/04/05 05:41:23;;;;;;;5.87;3.00;;;11.60;98.00;;;;;;4991348;28;20459;-66
2024/04/05 05:43:51;;;;;;;6.10;3.30;;;11.60;98.00;;;;;;4991161;28;20460;-66
2024/04/05 05:46:18;;;;;;;5.50;2.80;;;11.60;98.00;;;;;;4991316;28;20946;-66
2024/04/05 05:48:45;;;;;;;7.20;3.27;;;11.50;98.00;;;;;;4990631;28;20455;-65
2024/04/05 05:51:11;;;;;;;4.00;2.90;;;11.50;98.00;;;;;;4990843;28;20491;-66
2024/04/05 05:53:38;;;;;;;4.40;2.80;;;11.40;98.00;;;;;;4994913;28;20549;-66
2024/04/05 05:56:05;;;;;;;4.80;2.70;;;11.30;98.00;;;;;;4994881;28;20827;-66
2024/04/05 05:58:32;;;;;;;5.00;2.70;;;11.40;98.00;;;;;;4994810;28;20462;-69
2024/04/05 06:01:05;;;;;;;7.87;2.70;;;11.40;98.00;;;;;;4994773;28;20465;-69
2024/04/05 06:03:33;;;;;;;3.60;2.60;;;11.30;98.00;;;;;;4994651;28;20466;-69
2024/04/05 06:06:02;;;;;;;4.93;2.60;;;11.30;98.00;;;;;;4994677;28;20501;-69
2024/04/05 06:08:29;;;;;;;4.63;2.90;;;11.40;98.00;;;;;;4994663;28;20514;-69
2024/04/05 06:10:55;;;;;;;5.73;3.33;;;11.50;98.00;;;;;;4993384;28;20491;-69
2024/04/05 06:13:27;;;;;;;5.53;3.00;;;11.60;98.00;;;;;;4994465;28;20513;-70
2024/04/05 06:15:55;;;;;;;4.20;2.80;;;11.60;98.00;;;;;;4993519;28;20914;-69
2024/04/05 06:18:26;;;;;;;4.77;2.87;;;11.70;98.00;;;;;;4994945;28;20467;-69
2024/04/05 06:20:52;;;;;;;3.70;2.97;;;11.80;98.00;;;;;;4994520;28;20455;-68
2024/04/05 06:23:19;;;;;;;4.37;3.23;;;11.90;98.00;;;;;;4994486;28;20961;-69
2024/04/05 06:25:53;;;;;;;6.57;3.33;;;12.10;98.00;;;;;;4994440;28;20488;-68
2024/04/05 06:28:20;;;;;;;5.10;3.43;;;12.20;98.00;;;;;;4993413;28;20643;-69
2024/04/05 06:30:46;;;;;;;7.77;4.00;;;12.30;98.00;;;;;;4994656;28;20487;-68
2024/04/05 06:33:13;;;;;;;6.73;3.37;;;12.40;98.00;;;;;;4993855;28;20460;-68
2024/04/05 06:35:42;;;;;;;7.73;4.17;;;12.50;98.00;;;;;;4993828;28;20454;-69
2024/04/05 06:38:09;;;;;;;7.13;3.83;;;12.60;98.00;;;;;;4993615;28;20566;-68
2024/04/05 06:40:36;;;;;;;6.30;3.87;;;12.70;98.00;;;;;;4994156;28;20960;-69
2024/04/05 06:43:04;;;;;;;5.63;3.60;;;12.90;98.00;;;;;;4993382;28;20896;-69
2024/04/05 06:45:30;;;;;;;10.07;3.57;;;13.00;98.00;;;;;;4994139;28;20450;-68
2024/04/05 06:47:57;;;;;;;6.60;3.80;;;12.90;98.00;;;;;;4994116;28;20488;-69
2024/04/05 06:50:25;;;;;;;5.67;3.57;;;12.90;98.00;;;;;;4994065;28;20452;-68
2024/04/05 06:52:59;;;;;;;5.27;3.30;;;12.90;98.00;;;;;;4993893;28;20549;-69
2024/04/05 06:55:26;;;;;;;5.60;3.33;;;13.00;98.00;;;;;;4993756;28;20495;-68
2024/04/05 06:57:54;;;;;;;5.70;3.27;;;13.10;98.00;;;;;;4992325;28;20467;-69
2024/04/05 07:00:21;;;;;;;6.70;3.03;;;13.10;98.00;;;;;;4992505;28;20507;-68
2024/04/05 07:02:48;;;;;;;4.53;3.20;;;13.20;98.00;;;;;;4991396;28;20494;-68
2024/04/05 07:05:14;;;;;;;11.53;3.97;;;13.30;98.00;;;;;;4993427;28;20462;-69
2024/04/05 07:07:41;;;;;;;8.03;3.97;;;13.40;98.00;;;;;;4993677;28;20552;-69
2024/04/05 07:10:09;;;;;;;6.63;3.50;;;13.70;98.00;;;;;;4992637;28;20498;-69
2024/04/05 07:12:36;;;;;;;7.50;3.20;;;13.70;98.00;;;;;;4993221;28;20484;-69
2024/04/05 07:15:05;;;;;;;7.40;3.47;;;13.90;98.00;;;;;;4993492;28;20942;-69
2024/04/05 07:17:32;;;;;;;6.00;3.70;;;14.00;98.00;;;;;;4993197;28;20548;-68
2024/04/05 07:19:59;;;;;;;5.80;3.20;;;14.20;98.00;;;;;;4993277;28;20470;-69
2024/04/05 07:22:27;;;;;;;7.23;3.80;;;14.40;98.00;;;;;;4993354;28;20476;-69
2024/04/05 07:24:53;;;;;;;10.90;3.43;;;14.40;98.00;;;;;;4993157;28;20521;-69
2024/04/05 07:27:22;;;;;;;5.37;3.20;;;14.60;98.00;;;;;;4992015;28;20470;-69
2024/04/05 07:29:48;;;;;;;6.47;3.50;;;14.70;98.00;;;;;;4991809;28;20449;-69
2024/04/05 07:32:16;;;;;;;9.63;3.13;;;14.90;98.00;;;;;;4991791;28;20499;-69
2024/04/05 07:34:42;;;;;;;5.20;2.80;;;14.90;98.00;;;;;;4992981;28;20957;-69
2024/04/05 07:37:12;;;;;;;5.37;2.67;;;15.00;98.00;;;;;;4993696;28;20595;-68
2024/04/05 07:39:39;;;;;;;8.93;2.37;;;15.10;98.00;;;;;;4993613;28;20487;-68
2024/04/05 07:42:06;;;;;;;3.73;2.60;;;15.20;98.00;;;;;;4993551;28;20508;-68
2024/04/05 07:44:34;;;;;;;5.27;2.50;;;15.40;98.00;;;;;;4993761;28;20873;-69
2024/04/05 07:47:02;;;;;;;5.90;2.80;;;15.60;98.00;;;;;;4988996;28;20469;-69
2024/04/05 07:49:28;;;;;;;6.80;3.40;;;15.70;98.00;;;;;;4973302;28;20457;-69
2024/04/05 07:51:55;;;;;;;4.87;2.30;;;15.90;98.00;;;;;;4973988;28;21086;-69
2024/04/05 07:54:21;;;;;;;3.47;2.17;;;16.00;98.00;;;;;;4974010;28;20472;-69
2024/04/05 07:56:48;;;;;;;7.30;2.70;;;16.00;98.00;;;;;;4973273;28;20580;-69
2024/04/05 07:59:15;;;;;;;6.20;2.73;;;16.10;98.00;;;;;;4973353;28;20511;-69
2024/04/05 08:01:44;;;;;;;4.50;2.70;;;16.20;98.00;;;;;;4971994;28;20477;-69
2024/04/05 08:04:10;;;;;;;3.93;2.27;;;16.30;98.00;;;;;;4973011;28;20481;-70
2024/04/05 08:06:38;;;;;;;4.27;2.47;;;16.40;98.00;;;;;;4973663;28;20476;-68
2024/04/05 08:09:04;;;;;;;5.13;2.50;;;16.50;98.00;;;;;;4973727;28;20461;-70
2024/04/05 08:11:31;;;;;;;7.40;2.60;;;16.70;98.00;;;;;;4973917;28;20563;-68
2024/04/05 08:13:57;;;;;;;3.80;2.70;;;16.80;98.00;;;;;;4973481;28;20465;-69
2024/04/05 08:16:26;;;;;;;3.67;2.37;;;16.80;98.00;;;;;;4973517;28;20992;-70
2024/04/05 08:18:55;;;;;;;3.70;2.33;;;17.00;98.00;;;;;;4973173;28;20464;-70
2024/04/05 08:21:30;;;;;;;3.17;2.43;;;17.10;98.00;;;;;;4973195;28;20465;-69
2024/04/05 08:23:56;;;;;;;3.47;2.30;;;17.30;98.00;;;;;;4973015;28;20464;-69
2024/04/05 08:26:23;;;;;;;3.57;2.40;;;17.40;98.00;;;;;;4974082;28;21067;-68
2024/04/05 08:28:49;;;;;;;3.53;2.30;;;17.60;98.00;;;;;;4992913;28;20452;-68
2024/04/05 08:31:16;;;;;;;6.50;2.40;;;17.70;98.00;;;;;;4992637;28;21045;-69
2024/04/05 08:33:42;;;;;;;3.40;2.10;;;17.90;98.00;;;;;;4992533;28;20802;-68
2024/04/05 08:36:11;;;;;;;3.70;2.40;;;18.00;98.00;;;;;;4992285;28;20889;-70
2024/04/05 08:38:38;;;;;;;4.40;2.33;;;18.20;98.00;;;;;;4991655;28;20468;-69
2024/04/05 08:41:08;;;;;;;3.97;2.40;;;18.20;98.00;;;;;;4992167;28;20469;-70
2024/04/05 08:43:39;;;;;;;4.53;2.20;;;18.30;98.00;;;;;;4992446;28;20449;-69
2024/04/05 08:46:07;;;;;;;4.33;2.80;;;18.50;98.00;;;;;;4992401;28;20464;-69
2024/04/05 08:48:34;;;;;;;3.50;1.90;;;18.60;98.00;;;;;;4992259;28;20459;-68
2024/04/05 08:51:01;;;;;;;5.00;2.20;;;18.80;98.00;;;;;;4992218;28;20560;-68
2024/04/05 08:53:29;;;;;;;3.43;2.10;;;18.90;98.00;;;;;;4992496;28;20483;-69
2024/04/05 08:56:03;;;;;;;2.87;2.20;;;19.00;98.00;;;;;;4992122;28;20468;-67
2024/04/05 08:58:29;;;;;;;3.13;1.90;;;19.20;98.00;;;;;;4990922;28;20503;-68
2024/04/05 09:00:58;;;;;;;5.03;2.67;;;19.40;98.00;;;;;;4991380;28;20463;-69
2024/04/05 09:03:26;;;;;;;2.90;2.20;;;19.50;98.00;;;;;;4992003;28;20463;-67
2024/04/05 09:05:55;;;;;;;3.10;2.10;;;19.70;98.00;;;;;;4990641;28;20547;-70
2024/04/05 09:08:21;;;;;;;4.00;2.30;;;19.80;98.00;;;;;;4990829;28;20543;-70
2024/04/05 09:10:51;;;;;;;3.23;2.10;;;19.80;98.00;;;;;;4991622;28;20552;-69
2024/04/05 09:13:17;;;;;;;3.33;2.23;;;20.00;98.00;;;;;;4991720;28;20591;-69
2024/04/05 09:15:50;;;;;;;3.33;1.97;;;20.00;98.00;;;;;;4991713;28;20468;-68
2024/04/05 09:18:25;;;;;;;4.23;2.10;;;20.20;98.00;;;;;;4991811;28;20483;-68
2024/04/05 09:20:52;;;;;;;4.80;2.40;;;20.30;98.00;;;;;;4991712;28;20471;-67
2024/04/05 09:23:18;;;;;;;2.30;2.10;;;20.40;98.00;;;;;;4992202;28;20456;-68
2024/04/05 09:25:45;;;;;;;2.17;1.80;;;20.50;98.00;;;;;;4992303;28;20477;-68
2024/04/05 09:28:16;;;;;;;3.97;1.97;;;20.70;98.00;;;;;;4995472;28;20471;-68
2024/04/05 09:30:46;;;;;;;3.20;2.10;;;20.90;98.00;;;;;;4996033;28;20464;-68
2024/04/05 09:33:18;;;;;;;2.20;2.07;;;21.00;98.00;;;;;;4995356;28;20524;-70
2024/04/05 09:35:47;;;;;;;10.13;2.37;;;21.10;98.00;;;;;;4994890;28;20472;-70
2024/04/05 09:38:13;;;;;;;2.80;2.13;;;21.30;98.00;;;;;;4995916;28;20466;-70
2024/04/05 09:40:41;;;;;;;3.63;2.00;;;21.40;98.00;;;;;;4995822;28;20471;-68
2024/04/05 09:43:08;;;;;;;2.30;1.90;;;21.60;98.00;;;;;;4995878;28;20460;-68
2024/04/05 09:45:37;;;;;;;3.37;2.20;;;21.70;98.00;;;;;;4995949;28;20467;-68
2024/04/05 09:48:04;;;;;;;2.63;2.10;;;21.90;98.00;;;;;;4995603;28;20460;-68
2024/04/05 09:50:39;;;;;;;4.70;1.93;;;22.00;98.00;;;;;;4995749;28;20468;-68
2024/04/05 09:53:08;;;;;;;4.10;2.60;;;22.10;98.00;;;;;;4995425;28;20498;-68
2024/04/05 09:55:39;;;;;;;3.30;2.20;;;22.30;98.00;;;;;;4995857;28;20484;-68
2024/04/05 09:58:06;;;;;;;5.10;2.20;;;22.50;98.00;;;;;;4995627;28;20464;-70
2024/04/05 10:00:35;;;;;;;2.63;2.10;;;22.70;98.00;;;;;;4995693;28;20460;-68
2024/04/05 10:03:04;;;;;;;3.73;2.10;;;22.70;98.00;;;;;;4993836;28;20564;-71
2024/04/05 10:05:34;;;;;;;2.93;2.23;;;22.80;98.00;;;;;;4995833;28;20835;-69
2024/04/05 10:08:10;;;;;;;4.03;2.23;;;23.00;98.00;;;;;;4995419;28;20514;-69
2024/04/05 10:10:38;;;;;;;2.37;2.07;;;23.20;98.00;;;;;;4995637;28;20467;-70
2024/04/05 10:13:12;;;;;;;3.13;2.13;;;23.30;98.00;;;;;;4995457;28;20483;-68
2024/04/05 10:15:40;;;;;;;4.80;2.00;;;23.40;98.00;;;;;;4994285;28;20511;-68
2024/04/05 10:18:07;;;;;;;3.07;1.83;;;23.50;96.60;;;;;;4994084;28;20503;-70
2024/04/05 10:20:35;;;;;;;3.00;2.30;;;23.60;96.40;;;;;;4995174;28;20469;-68
2024/04/05 10:23:03;;;;;;;4.60;2.30;;;23.70;95.30;;;;;;4995003;28;20461;-71
2024/04/05 10:25:30;;;;;;;3.67;2.30;;;23.80;96.60;;;;;;4994905;28;21028;-71
2024/04/05 10:27:56;;;;;;;4.20;2.20;;;24.00;96.00;;;;;;4994872;28;20463;-70
2024/04/05 10:30:24;;;;;;;3.20;1.93;;;24.10;93.20;;;;;;4994639;28;20981;-69
2024/04/05 10:32:58;;;;;;;2.20;1.90;;;24.20;92.40;;;;;;4994819;28;20563;-71
2024/04/05 10:35:27;;;;;;;3.07;2.00;;;24.30;91.70;;;;;;4994513;28;20981;-68
2024/04/05 10:37:57;;;;;;;3.17;1.90;;;24.30;91.80;;;;;;4994020;28;20465;-71
2024/04/05 10:40:25;;;;;;;3.10;1.80;;;24.50;90.40;;;;;;4994706;28;20547;-68
2024/04/05 10:42:51;;;;;;;7.47;2.10;;;24.60;91.40;;;;;;4994962;28;20835;-69
2024/04/05 10:45:20;;;;;;;2.97;2.00;;;24.60;89.80;;;;;;4994816;28;20531;-69
2024/04/05 10:47:53;;;;;;;3.33;2.10;;;24.50;89.40;;;;;;4993364;28;20543;-70
2024/04/05 10:50:21;;;;;;;1.87;1.70;;;;;;;;;;4994628;28;20464;-70
2024/04/05 10:52:50;;;;;;;2.20;2.00;;;24.80;88.50;;;;;;4994171;28;20571;-70
2024/04/05 10:55:17;;;;;;;2.57;1.80;;;24.80;89.30;;;;;;4994413;28;20847;-70
2024/04/05 10:57:44;;;;;;;2.40;1.90;;;25.00;87.80;;;;;;4994374;28;20471;-71
2024/04/05 11:00:12;;;;;;;2.77;1.90;;;25.40;88.80;;;;;;4994532;28;20465;-70
2024/04/05 11:02:39;;;;;;;3.83;1.90;;;25.70;85.80;;;;;;4994236;28;20492;-71
2024/04/05 11:05:10;;;;;;;2.07;1.90;;;25.60;82.80;;;;;;4994171;28;21013;-69
2024/04/05 11:07:38;;;;;;;2.37;1.77;;;25.90;85.70;;;;;;4994061;28;20514;-69
2024/04/05 11:10:18;;;;;;;1.80;1.63;;;26.20;84.70;;;;;;4994176;28;20468;-69
2024/04/05 11:12:46;;;;;;;2.20;1.80;;;26.40;84.20;;;;;;4994249;28;20484;-71
2024/04/05 11:15:17;;;;;;;1.70;1.60;;;26.30;83.50;;;;;;4994059;28;20475;-72
2024/04/05 11:17:43;;;;;;;1.90;1.80;;;26.50;82.20;;;;;;4993907;28;21098;-70
2024/04/05 11:20:13;;;;;;;2.60;1.87;;;26.40;80.80;;;;;;4994235;28;20492;-70
2024/04/05 11:22:40;;;;;;;1.50;1.50;;;26.10;82.20;;;;;;4994003;28;20528;-69
2024/04/05 11:25:22;;;;;;;2.80;1.93;;;26.20;80.80;;;;;;4994263;28;20547;-71
2024/04/05 11:27:48;;;;;;;2.20;1.80;;;26.00;81.60;;;;;;4993966;28;20460;-72
2024/04/05 11:30:15;;;;;;;3.07;1.90;;;26.00;81.50;;;;;;4993899;28;20522;-71
2024/04/05 11:32:42;;;;;;;2.20;1.73;;;26.20;81.70;;;;;;4993830;28;20908;-70
2024/04/05 11:35:13;;;;;;;4.47;1.90;;;26.80;81.80;;;;;;4993575;28;20831;-69
2024/04/05 11:37:40;;;;;;;2.70;1.80;;;27.20;80.10;;;;;;4993674;28;20457;-68
2024/04/05 11:40:09;;;;;;;2.50;1.70;;;27.40;80.90;;;;;;4993767;28;20959;-67
2024/04/05 11:42:38;;;;;;;1.97;1.90;;;27.20;78.90;;;;;;4993656;28;20856;-68
2024/04/05 11:45:06;;;;;;;2.40;1.70;;;27.00;80.30;;;;;;4993500;28;20461;-69
2024/04/05 11:47:33;;;;;;;2.63;2.20;;;27.00;78.80;;;;;;4993659;28;20496;-68
2024/04/05 11:50:02;;;;;;;2.70;1.97;;;27.10;79.90;;;;;;4992829;28;20900;-68
2024/04/05 11:52:28;;;;;;;2.60;1.80;;;26.70;80.30;;;;;;4993454;28;20495;-68
2024/04/05 11:54:56;;;;;;;2.20;1.87;;;26.20;79.40;;;;;;4993678;28;20542;-67
2024/04/05 11:57:22;;;;;;;2.10;1.80;;;25.80;81.00;;;;;;4993383;28;20816;-68
2024/04/05 11:59:51;;;;;;;2.43;1.80;;;25.60;81.20;;;;;;4992330;28;20530;-67
2024/04/05 12:02:17;;;;;;;2.77;1.70;;;25.90;81.40;;;;;;4993200;28;20464;-69
2024/04/05 12:04:46;;;;;;;2.73;1.70;;;26.20;81.20;;;;;;4993397;28;20959;-72
2024/04/05 12:07:12;;;;;;;2.70;2.10;;;26.90;83.10;;;;;;4993321;28;20514;-70
2024/04/05 12:09:39;;;;;;;2.10;1.87;;;27.10;78.30;;;;;;4992875;28;20471;-73
2024/04/05 12:12:06;;;;;;;2.93;1.80;;;27.30;81.00;;;;;;4992057;28;20547;-71
2024/04/05 12:14:36;;;;;;;4.10;2.90;;;27.10;79.20;;;;;;4992987;28;20523;-71
2024/04/05 12:17:04;;;;;;;6.07;3.47;;;27.00;79.90;;;;;;4992756;28;20460;-73
2024/04/05 12:19:31;;;;;;;2.17;1.73;;;26.80;82.20;;;;;;4991387;28;20464;-74
2024/04/05 12:21:58;;;;;;;1.87;1.70;;;26.30;78.30;;;;;;4992885;28;20448;-71
2024/04/05 12:24:26;;;;;;;2.20;1.90;;;26.10;80.20;;;;;;4992779;28;20471;-70
2024/04/05 12:26:54;;;;;;;3.33;1.93;;;25.80;80.00;;;;;;4992818;28;20951;-72
2024/04/05 12:29:21;;;;;;;5.10;3.50;;;25.60;83.30;;;;;;4992767;28;20913;-73
2024/04/05 12:31:50;;;;;;;5.30;2.00;;;25.20;83.70;;;;;;4992516;28;20475;-73
2024/04/05 12:34:18;;;;;;;1.87;1.63;;;24.90;83.70;;;;;;4992161;28;20491;-69
2024/04/05 12:36:44;;;;;;;1.90;1.60;;;24.60;83.20;;;;;;4993014;28;20451;-71
2024/04/05 12:39:24;;;;;;;3.10;2.30;;;24.40;86.70;;;;;;4992813;28;20460;-71
2024/04/05 12:41:50;;;;;;;5.50;2.07;;;24.10;87.20;;;;;;4992507;28;20476;-70
2024/04/05 12:46:53;;;;;;;2.90;2.30;;;23.90;87.80;;;;;;5040055;22;20487;-69
2024/04/05 12:49:21;;;;;;;2.90;1.87;;;23.90;86.60;;;;;;4996550;28;20471;-69
2024/04/05 12:51:48;;;;;;;3.33;2.23;;;23.80;86.30;;;;;;5192820;22;20453;-68
2024/04/05 12:54:14;;;;;;;5.50;2.87;;;23.60;88.10;;;;;;5010802;28;20455;-68